This is the latest recevied weather packets stored in our database for station/object 2E0RGX-13. If no packets are shown the sender has not sent any weather packets the latest 10 day(s).
| Time | Temp. | Humidity | Pressure | Rain* | Wind** | Luminosity | Snow |
|---|---|---|---|---|---|---|---|
| 1777124747 | 21.11° C | 17% | 1017.7 hPa | 0 mm | - | 4 W/m² | - |
| 1777124443 | 20.56° C | 17% | 1017.7 hPa | 0 mm | - | 4 W/m² | - |
| 1777124139 | 19.44° C | 17% | 1017.6 hPa | 0 mm | - | 4 W/m² | - |
| 1777123835 | 20° C | 17% | 1017.8 hPa | 0 mm | - | 4 W/m² | - |
| 1777123531 | 20° C | 18% | 1017.7 hPa | 0 mm | - | 4 W/m² | - |
| 1777123227 | 20° C | 17% | 1017.9 hPa | 0 mm | - | 4 W/m² | - |
| 1777122923 | 20.56° C | 17% | 1017.9 hPa | 0 mm | - | 4 W/m² | - |
| 1777122619 | 20° C | 17% | 1017.9 hPa | 0 mm | - | 4 W/m² | - |
| 1777122315 | 19.44° C | 18% | 1017.8 hPa | 0 mm | - | 4 W/m² | - |
| 1777122011 | 19.44° C | 17% | 1017.8 hPa | 0 mm | - | 4 W/m² | - |
| 1777121707 | 20.56° C | 18% | 1018 hPa | 0 mm | - | 4 W/m² | - |
| 1777121403 | 20° C | 18% | 1017.8 hPa | 0 mm | - | 4 W/m² | - |
| 1777121099 | 20.56° C | 19% | 1017.8 hPa | 0 mm | - | 5 W/m² | - |
| 1777120795 | 20.56° C | 19% | 1018 hPa | 0 mm | - | 5 W/m² | - |
| 1777120491 | 19.44° C | 19% | 1018 hPa | 0 mm | - | 4 W/m² | - |
| 1777120187 | 18.89° C | 20% | 1018 hPa | 0 mm | - | 5 W/m² | - |
| 1777119883 | 18.89° C | 20% | 1018.2 hPa | 0 mm | - | 5 W/m² | - |
| 1777119579 | 19.44° C | 20% | 1018.2 hPa | 0 mm | - | 5 W/m² | - |
| 1777119275 | 18.89° C | 21% | 1018.1 hPa | 0 mm | - | 4 W/m² | - |
| 1777118971 | 18.33° C | 21% | 1018.1 hPa | 0 mm | - | 4 W/m² | - |
| 1777118667 | 18.33° C | 23% | 1018.1 hPa | 0 mm | - | 4 W/m² | - |
| 1777118363 | 18.89° C | 21% | 1018.3 hPa | 0 mm | - | 4 W/m² | - |
| 1777118059 | 17.78° C | 19% | 1018.3 hPa | 0 mm | - | 4 W/m² | - |
| 1777117755 | 18.33° C | 20% | 1018.5 hPa | 0 mm | - | 4 W/m² | - |
| 1777117451 | 18.33° C | 21% | 1018.6 hPa | 0 mm | - | 4 W/m² | - |
* Rain latest hour (hover to see other rain measurements)
** Current wind speed in m/s (hover to see current wind gust speed)